Tiempo atmosférico en la estación meteorológica de Zarza La Mayor, Cáceres (336 m.)



Fecha
DESCASC
Temp. máxima en grados centígrados (hora)
DESCASC
Temp. mínima en grados centígrados (hora)
DESCASC
Temp. media en grados centígrados
DESCASC
Racha de viento máxima en m/sg (hora)
DESCASC
Velocidad máxima media en intervalos de 10 minutos(hora)
DESCASC
Precipitaciones diarias en mm
DESCASC
Precipitaciones de 00:00 a 06:00 en mm
DESCASC
Precipitaciones de 06:00 a 12:00 en mm
DESCASC
Precipitaciones de 12:00 a 18:00 en mm
DESCASC
Precipitaciones de 18:00 a 24:00 en mm
DESCASC
25-04-2019 15.2 (17:00) 7.4 (07:50) 11.3 17.5 (15:40) 10.28 (15:40) 2.4 0.4 1.6 0.4 0
24-04-2019 16.2 (14:20) 6.3 (00:00) 11.3 17.78 (20:40) 11.39 (08:50) 14 2.6 7.2 2.4 1.8
23-04-2019 12.9 (00:00) 6 (22:40) 9.4 16.67 (13:40) 10.28 (13:40) 3.8 2.6 0.4 0.6 0.2
22-04-2019 22.8 (16:50) 7.7 (00:00) 15.2 12.22 (19:40) 8.33 (19:40) 1 0 0 0 1
21-04-2019 21.1 (15:40) 9.3 (00:00) 15.2 8.61 (18:40) 5.56 (15:20) 0 0 0 0 0
20-04-2019 24.4 (18:00) 10 (00:00) 17.2 9.17 (17:00) 4.72 (22:40) 1.2 1.2 0 0 0
19-04-2019 18.1 (16:40) 9.7 (00:00) 13.9 8.33 (17:10) 5.83 (17:10) 1.2 0.4 0.2 0.6 0
18-04-2019 18.1 (14:10) 9.7 (00:00) 13.9 8.06 (15:20) 5.28 (15:20) 2.4 0 0 0.2 2.2
17-04-2019 18.8 (14:20) 10.7 (00:00) 14.7 13.33 (14:00) 8.61 (14:00) 4.2 0 0 1.8 2.4
16-04-2019 22.5 (18:00) 5.9 (00:00) 14.2 10.28 (16:20) 5.83 (18:30) 0 0 0 0 0
15-04-2019 20.1 (13:40) 11 (00:00) 15.6 17.78 (14:00) 10 (14:00) 0.2 0 0 0.2 0
14-04-2019 25.4 (17:40) 13.1 (00:00) 19.3 6.67 (00:10) 4.72 (00:10) 0 0 0 0 0
13-04-2019 23.6 (16:50) 9.5 (00:00) 16.6 8.89 (17:20) 5.56 (17:20) 0 0 0 0 0
12-04-2019 22.2 (17:50) 6.9 (00:00) 14.6 6.39 (16:50) 3.89 (16:50) 0 0 0 0 0
11-04-2019 19.9 (16:50) 7.1 (00:00) 13.5 7.5 (17:50) 4.44 (17:10) 0 0 0 0 0
10-04-2019 17.9 (16:40) 5.6 (00:00) 11.7 11.11 (16:00) 6.39 (13:40) 0.2 0.2 0 0 0
09-04-2019 16.6 (16:50) 7.5 (00:00) 12.1 13.06 (18:20) 8.61 (18:20) 1.4 0 0.2 1 0.2
08-04-2019 16.7 (15:20) 8.3 (00:00) 12.5 12.5 (17:00) 8.33 (17:00) 2.4 2.4 0 0 0
07-04-2019 12.5 (14:30) 7.1 (00:00) 9.8 7.22 (13:30) 4.72 (05:10) 1.4 0 0 1.2 0.2
06-04-2019 11.8 (19:00) 5.2 (00:00) 8.5 14.72 (11:00) 9.72 (11:00) 3.6 0.2 2.8 0.6 0
05-04-2019 12.4 (15:00) 4.9 (00:00) 8.6 15.28 (16:30) 8.89 (15:40) 3.2 2.6 0.4 0.2 0
04-04-2019 16.8 (16:10) 2.8 (00:00) 9.8 12.22 (19:50) 7.78 (19:50) 0.6 0 0 0 0.6
03-04-2019 17 (16:50) 4.7 (00:00) 10.8 11.94 (17:40) 7.78 (15:20) 0 0 0 0 0
02-04-2019 22.7 (17:00) 6.7 (00:00) 14.7 8.89 (19:20) 5.83 (19:20) 0 0 0 0 0
01-04-2019 18.5 (17:30) 10.6 (00:00) 14.6 6.39 (01:40) 3.89 (21:50) 0.6 0 0 0.6 0
31-03-2019 21.7 (16:50) 10.1 (00:00) 15.9 9.17 (00:20) 5 (10:50) 0 0 0 0 0
30-03-2019 21.3 (16:30) 7 (00:00) 14.1 9.72 (09:40) 5.83 (09:40) 0 0 0 0 0
29-03-2019 20.8 (17:50) 7.1 (00:00) 13.9 8.06 (14:50) 5 (14:50) 0 0 0 0 0
28-03-2019 21.7 (16:10) 7.3 (00:00) 14.5 7.78 (16:30) 4.17 (13:50) 0 0 0 0 0
27-03-2019 20.8 (17:00) 10.3 (00:00) 15.5 13.89 (01:00) 8.61 (00:50) 0 0 0 0 0

Gráficas

Temp. máximas Temp. mínimas Temp. medias Precipitaciones Rachas de viento máximas Velocidades máximas media en intervalos de 10 minutos

Datos horarios

Fecha y hora oficial Temperatura (ºC) Velocidad del viento (km/h) Dirección del viento Racha (km/h) Dirección de racha Precipitación (mm) Presión (hPa) Tendencia (hPa) Humedad (%)
2019-04-25 23:00:00 10.4 19 Sudoeste 36 Sudoeste 0 -- -- 74
2019-04-25 22:00:00 10.7 26 Sudoeste 41 Sudoeste 0 -- -- 67
2019-04-25 21:00:00 11.9 23 Sudoeste 39 Oeste 0 -- -- 64
2019-04-25 20:00:00 13.4 19 Oeste 41 Sudoeste 0 -- -- 61
2019-04-25 19:00:00 14.3 29 Oeste 53 Sudoeste 0 -- -- 53
2019-04-25 18:00:00 13.3 31 Sudoeste 51 Sudoeste 0.2 -- -- 67
2019-04-25 17:00:00 15.2 27 Sudoeste 48 Oeste 0 -- -- 61
2019-04-25 16:00:00 11.9 18 Oeste 63 Sudoeste 0 -- -- 74
2019-04-25 15:00:00 13.3 28 Sudoeste 51 Sudoeste 0 -- -- 67
2019-04-25 14:00:00 11.4 13 Oeste 42 Sudoeste 0.2 -- -- 83
2019-04-25 13:00:00 12.3 28 Sudoeste 50 Sudoeste 0 -- -- 69
2019-04-25 12:00:00 10.6 17 Sudoeste 30 Sudoeste 0 -- -- 83
2019-04-25 11:00:00 9.6 24 Sudoeste 39 Sudoeste 0 -- -- 89
2019-04-25 10:00:00 8.7 22 Sudoeste 38 Sudoeste 1.4 -- -- 91
2019-04-25 09:00:00 8.6 22 Sudoeste 32 Sudoeste 0.2 -- -- 92
2019-04-25 08:00:00 7.4 15 Sudoeste 27 Sudoeste 0 -- -- 93
2019-04-25 07:00:00 8 15 Sudoeste 39 Sudoeste 0 -- -- 90
2019-04-25 06:00:00 8.4 17 Sudoeste 29 Sudoeste 0.4 -- -- 93
2019-04-25 05:00:00 8.7 18 Sudoeste 28 Sudoeste 0 -- -- 89
2019-04-25 04:00:00 8.7 18 Sudoeste 35 Sudoeste 0 -- -- 89
2019-04-25 03:00:00 9.1 18 Sudoeste 34 Sudoeste 0 -- -- 89
2019-04-25 02:00:00 9.6 17 Sudoeste 34 Sudoeste 0 -- -- 90
2019-04-25 01:00:00 9.7 19 Sudoeste 41 Sudoeste 0 -- -- 91
2019-04-25 00:00:00 10.3 18 Sudoeste 33 Sudoeste 0 -- -- 91
2019-04-24 23:00:00 10.5 22 Sudoeste 50 Sudoeste 0.2 -- -- 90
2019-04-24 22:00:00 11.7 28 Sudoeste 51 Sudoeste 0.4 -- -- 92
2019-04-24 21:00:00 13 40 Sudoeste 64 Sudoeste 0 -- -- 83
2019-04-24 20:00:00 12.9 20 Sur 42 Sur 0.2 -- -- 87
2019-04-24 19:00:00 12 25 Sudoeste 55 Sudoeste 1 -- -- 90
2019-04-24 18:00:00 13.2 21 Sudoeste 54 Sur 0 -- -- 81
2019-04-24 17:00:00 14.2 30 Sudoeste 53 Sudoeste 0 -- -- 68
2019-04-24 16:00:00 13.1 24 Sudoeste 61 Oeste 0.2 -- -- 82
2019-04-24 15:00:00 13.1 28 Sudoeste 52 Sur 1.8 -- -- 90
2019-04-24 14:00:00 15.5 27 Sudoeste 44 Sudoeste 0 -- -- 77
2019-04-24 13:00:00 13.5 22 Sudoeste 47 Sudoeste 0.4 -- -- 91
2019-04-24 12:00:00 12.1 24 Sur 42 Sur 0.2 -- -- 92
2019-04-24 11:00:00 11.2 17 Sur 32 Sudoeste 0.6 -- -- 96
2019-04-24 10:00:00 10.4 19 Sur 42 Sur 2 -- -- 96
2019-04-24 09:00:00 9.4 33 Sur 55 Sur 1.8 -- -- 96
2019-04-24 08:00:00 8.6 26 Sur 39 Sur 1.2 -- -- 96
2019-04-24 07:00:00 7.8 23 Sudeste 37 Sudeste 1.4 -- -- 96
2019-04-24 06:00:00 7.1 23 Sudeste 35 Sudeste 2 -- -- 95
2019-04-24 05:00:00 6.9 17 Sudeste 31 Sudeste 0.6 -- -- 94
2019-04-24 04:00:00 6.9 21 Sudeste 30 Sudeste 0 -- -- 91
2019-04-24 03:00:00 6.8 14 Sudeste 25 Sudeste 0 -- -- 89
2019-04-24 02:00:00 6.7 10 Sur 16 Sur 0 -- -- 88
2019-04-24 01:00:00 6.8 9 Sur 17 Sur 0 -- -- 88
2019-04-24 00:00:00 6.3 13 Sudoeste 19 Sur 0.2 -- -- 88
2019-04-23 23:00:00 6.1 11 Sur 21 Sudoeste 0 -- -- 91
2019-04-23 22:00:00 6.5 13 Sudoeste 27 Sudoeste 0 -- -- 89
2019-04-23 21:00:00 7.1 22 Sudoeste 42 Sudoeste 0 -- -- 80
2019-04-23 20:00:00 8.6 27 Sudoeste 40 Sudoeste 0 -- -- 73
2019-04-23 19:00:00 9.6 27 Sudoeste 42 Sudoeste 0 -- -- 67
2019-04-23 18:00:00 11.1 27 Sudoeste 44 Sudoeste 0 -- -- 65
2019-04-23 17:00:00 10.7 30 Sudoeste 47 Sudoeste 0.2 -- -- 72
2019-04-23 16:00:00 8.5 22 Sudoeste 51 Oeste 0.2 -- -- 82
2019-04-23 15:00:00 11 24 Sudoeste 50 Sudoeste 0 -- -- 72
2019-04-23 14:00:00 8.9 26 Sudoeste 60 Sudoeste 0.2 -- -- 82
2019-04-23 13:00:00 10.5 24 Sudoeste 40 Sudoeste 0 -- -- 78
2019-04-23 12:00:00 9.1 18 Sudoeste 27 Sudoeste 0.2 -- -- 86
2019-04-23 11:00:00 8.4 14 Sudoeste 26 Sur 0.2 -- -- 87
2019-04-23 10:00:00 7.6 17 Sudoeste 32 Sudoeste 0 -- -- 90
2019-04-23 09:00:00 7.6 17 Sudoeste 27 Sur 0 -- -- 91
2019-04-23 08:00:00 6.4 16 Sur 23 Sudoeste 0 -- -- 95
2019-04-23 07:00:00 6.8 14 Sudoeste 26 Sudoeste 0 -- -- 94
2019-04-23 06:00:00 7.4 19 Sudoeste 28 Sudoeste 0 -- -- 92
2019-04-23 05:00:00 8.3 14 Sudoeste 24 Sudoeste 0 -- -- 93
2019-04-23 04:00:00 9 14 Sudoeste 21 Oeste 1 -- -- 94
2019-04-23 03:00:00 9.4 10 Sudoeste 35 Sudoeste 1 -- -- 91
2019-04-23 02:00:00 10.2 27 Sudoeste 40 Sudoeste 0.6 -- -- 89
2019-04-23 01:00:00 12.3 16 Sudoeste 31 Sudoeste 0 -- -- 82
2019-04-23 00:00:00 12.9 17 Sudoeste 27 Sudoeste 0.2 -- -- 82
2019-04-22 23:00:00 13.2 13 Sur 38 Sur 0.8 -- -- 84
2019-04-22 22:00:00 15.9 13 Sudoeste 30 Sudoeste 0 -- -- 59
2019-04-22 21:00:00 16.8 20 Sudoeste 41 Sudoeste 0 -- -- 49
2019-04-22 20:00:00 17.7 24 Sudoeste 44 Sudoeste 0 -- -- 50
2019-04-22 19:00:00 19.3 28 Sudoeste 39 Sudoeste 0 -- -- 46
2019-04-22 18:00:00 21 22 Sudoeste 35 Sudoeste 0 -- -- 42
2019-04-22 17:00:00 22.2 19 Sudoeste 36 Sudoeste 0 -- -- 37
2019-04-22 16:00:00 21.5 11 Oeste 27 Sudoeste 0 -- -- 40
2019-04-22 15:00:00 21.4 12 Sudoeste 22 Sur 0 -- -- 41
2019-04-22 14:00:00 20.6 6 Sudoeste 18 Sur 0 -- -- 44
2019-04-22 13:00:00 18.8 8 Sur 16 Este 0 -- -- 48
2019-04-22 12:00:00 17.4 8 Este 18 Este 0 -- -- 52
2019-04-22 11:00:00 15.6 8 Este 15 Este 0 -- -- 57
2019-04-22 10:00:00 13.7 4 Nordeste 11 Nordeste 0 -- -- 66
2019-04-22 09:00:00 10.2 2 Norte 4 Nordeste 0 -- -- 83
2019-04-22 08:00:00 7.7 0 Calma 4 Nordeste 0 -- -- 85
2019-04-22 07:00:00 9.3 3 Nordeste 7 Nordeste 0 -- -- 81
2019-04-22 06:00:00 9.6 0 Calma 3 Norte 0 -- -- 82
2019-04-22 05:00:00 10.4 0 Calma 6 Nordeste 0 -- -- 77
2019-04-22 04:00:00 11.2 3 Nordeste 6 Nordeste 0 -- -- 74
2019-04-22 03:00:00 12.3 3 Nordeste 5 Nordeste 0 -- -- 69
2019-04-22 02:00:00 12.5 2 Norte 5 Noroeste 0 -- -- 72
2019-04-22 01:00:00 12.7 2 Noroeste 9 Este 0 -- -- 69
2019-04-22 00:00:00 14 2 Nordeste 9 Nordeste 0 -- -- 63
2019-04-21 23:00:00 14.1 6 Nordeste 13 Este 0 -- -- 61
2019-04-21 22:00:00 14.6 11 Este 18 Este 0 -- -- 60
2019-04-21 21:00:00 17.1 9 Este 21 Este 0 -- -- 50
2019-04-21 20:00:00 19.6 12 Nordeste 25 Norte 0 -- -- 39
2019-04-21 19:00:00 20.3 12 Nordeste 31 Norte 0 -- -- 38
2019-04-21 18:00:00 20.7 18 Norte 26 Noroeste 0 -- -- 36
2019-04-21 17:00:00 20.9 10 Nordeste 25 Norte 0 -- -- 37
2019-04-21 16:00:00 20.6 15 Norte 27 Noroeste 0 -- -- 38
2019-04-21 15:00:00 20.6 12 Norte 27 Norte 0 -- -- 41
2019-04-21 14:00:00 18.9 9 Nordeste 21 Norte 0 -- -- 47
2019-04-21 13:00:00 18.3 10 Nordeste 22 Norte 0 -- -- 49
2019-04-21 12:00:00 17.6 6 Norte 18 Norte 0 -- -- 54
2019-04-21 11:00:00 15.7 3 Noroeste 12 Oeste 0 -- -- 59
2019-04-21 10:00:00 13.5 2 Noroeste 6 Noroeste 0 -- -- 70
2019-04-21 09:00:00 10.9 3 Noroeste 7 Norte 0 -- -- 77
2019-04-21 08:00:00 9.4 3 Nordeste 13 Nordeste 0 -- -- 80
2019-04-21 07:00:00 9.3 7 Nordeste 12 Nordeste 0 -- -- 81
2019-04-21 06:00:00 9.7 4 Norte 7 Norte 0 -- -- 79
2019-04-21 05:00:00 10.4 6 Nordeste 9 Nordeste 0 -- -- 79
2019-04-21 04:00:00 10.8 2 Oeste 10 Nordeste 0 -- -- 79
2019-04-21 03:00:00 11.2 2 Norte 9 Este 0 -- -- 79
2019-04-21 02:00:00 12.5 8 Este 10 Este 0 -- -- 72
2019-04-21 01:00:00 13.3 0 Calma 8 Sudeste 0 -- -- 71
2019-04-21 00:00:00 14.1 8 Sudeste 23 Sudeste 0 -- -- 69
2019-04-20 23:00:00 16.2 17 Sudeste 26 Sudeste 0 -- -- 63
2019-04-20 22:00:00 18.7 10 Este 17 Este 0 -- -- 47
2019-04-20 21:00:00 20.4 11 Este 15 Este 0 -- -- 47
2019-04-20 20:00:00 23 9 Este 19 Este 0 -- -- 40
2019-04-20 19:00:00 24.2 9 Este 17 Este 0 -- -- 38
2019-04-20 18:00:00 24.4 8 Norte 22 Nordeste 0 -- -- 37
2019-04-20 17:00:00 24.2 15 Norte 33 Nordeste 0 -- -- 39
2019-04-20 16:00:00 24.1 12 Este 22 Este 0 -- -- 38
2019-04-20 15:00:00 23.1 6 Nordeste 17 Norte 0 -- -- 42
2019-04-20 14:00:00 21.8 13 Norte 19 Norte 0 -- -- 44
2019-04-20 13:00:00 20.1 6 Noroeste 14 Este 0 -- -- 52
2019-04-20 12:00:00 18.2 6 Nordeste 16 Norte 0 -- -- 56
2019-04-20 11:00:00 15.7 3 Norte 8 Noroeste 0 -- -- 74
2019-04-20 10:00:00 12.5 0 Calma 9 Noroeste 0 -- -- 86
2019-04-20 09:00:00 10.5 4 Noroeste 9 Noroeste 0 -- -- 91
2019-04-20 08:00:00 10.1 3 Este 5 Sudeste 0 -- -- 89
2019-04-20 07:00:00 10.1 2 Oeste 8 Noroeste 0 -- -- 89
2019-04-20 06:00:00 10.3 6 Noroeste 22 Nordeste 0 -- -- 88
2019-04-20 05:00:00 10.4 7 Nordeste 23 Nordeste 0 -- -- 87
2019-04-20 04:00:00 10.2 9 Nordeste 20 Nordeste 0 -- -- 87
2019-04-20 03:00:00 10.6 10 Norte 15 Norte 0 -- -- 88
2019-04-20 02:00:00 11.1 8 Nordeste 17 Nordeste 0.6 -- -- 89
2019-04-20 01:00:00 11.3 9 Este 20 Este 0.6 -- -- 91
2019-04-20 00:00:00 12.6 8 Este 12 Este 0 -- -- 84
2019-04-19 23:00:00 13 6 Este 18 Nordeste 0 -- -- 77
2019-04-19 22:00:00 13.6 9 Este 24 Este 0 -- -- 75
2019-04-19 21:00:00 14.3 15 Este 24 Nordeste 0 -- -- 70
2019-04-19 20:00:00 15.2 15 Nordeste 26 Nordeste 0 -- -- 65
2019-04-19 19:00:00 15.3 14 Nordeste 29 Nordeste 0 -- -- 68
2019-04-19 18:00:00 14.2 18 Nordeste 30 Norte 0.4 -- -- 76
2019-04-19 17:00:00 16.8 12 Norte 29 Norte 0 -- -- 66
2019-04-19 16:00:00 17.9 6 Nordeste 20 Este 0.2 -- -- 57
2019-04-19 15:00:00 17.9 9 Sudeste 20 Sudeste 0 -- -- 59
2019-04-19 14:00:00 15.5 10 Nordeste 26 Este 0 -- -- 72
2019-04-19 13:00:00 14 6 Este 13 Este 0 -- -- 82
2019-04-19 12:00:00 12.2 8 Este 17 Nordeste 0 -- -- 88
2019-04-19 11:00:00 11.1 9 Nordeste 14 Nordeste 0 -- -- 91
2019-04-19 10:00:00 10.8 3 Nordeste 6 Nordeste 0 -- -- 93
2019-04-19 09:00:00 10.3 2 Noroeste 5 Noroeste 0 -- -- 93
2019-04-19 08:00:00 9.7 2 Sudoeste 4 Oeste 0 -- -- 94
2019-04-19 07:00:00 9.9 4 Noroeste 7 Noroeste 0.2 -- -- 93
2019-04-19 06:00:00 9.8 4 Sudeste 8 Sur 0.2 -- -- 93
2019-04-19 05:00:00 9.7 0 Calma 5 Sudeste 0 -- -- 93
2019-04-19 04:00:00 9.9 2 Sudoeste 7 Sudoeste 0 -- -- 91
2019-04-19 03:00:00 10.2 2 Sudoeste 8 Sudoeste 0 -- -- 92
2019-04-19 02:00:00 10.3 3 Oeste 8 Nordeste 0 -- -- 91
2019-04-19 01:00:00 11 0 Calma 7 Este 0.2 -- -- 88
2019-04-19 00:00:00 11.2 0 Calma 4 Oeste 0 -- -- 88
2019-04-18 23:00:00 11.2 0 Calma 5 Nordeste 0 -- -- 84
2019-04-18 22:00:00 11.6 4 Nordeste 5 Nordeste 0 -- -- 82
2019-04-18 21:00:00 11.7 0 Calma 9 Nordeste 0 -- -- 83
2019-04-18 20:00:00 12.5 9 Este 14 Este 0 -- -- 79
2019-04-18 19:00:00 13.3 9 Este 19 Nordeste 2.2 -- -- 80
2019-04-18 18:00:00 16.5 4 Noroeste 15 Noroeste 0 -- -- 58
2019-04-18 17:00:00 16 5 Oeste 21 Noroeste 0 -- -- 62
2019-04-18 16:00:00 15.7 12 Oeste 29 Norte 0 -- -- 68
2019-04-18 15:00:00 17 3 Norte 12 Sudeste 0 -- -- 58
2019-04-18 14:00:00 17.7 6 Sur 17 Sur 0 -- -- 56
2019-04-18 13:00:00 17 6 Sur 15 Sur 0.2 -- -- 60
2019-04-18 12:00:00 15.4 5 Sudeste 16 Sur 0 -- -- 70
2019-04-18 11:00:00 14.2 5 Sur 16 Sur 0 -- -- 79
2019-04-18 10:00:00 12 9 Sudeste 15 Sudeste 0 -- -- 89
2019-04-18 09:00:00 10.5 6 Este 13 Este 0 -- -- 95
2019-04-18 08:00:00 9.9 9 Este 14 Este 0 -- -- 94
2019-04-18 07:00:00 9.8 9 Sudeste 13 Este 0 -- -- 94
2019-04-18 06:00:00 10.1 6 Sudeste 15 Sudeste 0 -- -- 93
2019-04-18 05:00:00 10 6 Sudeste 14 Sudeste 0 -- -- 94
2019-04-18 04:00:00 10 9 Sur 15 Sudeste 0 -- -- 95
2019-04-18 03:00:00 10.3 8 Sudeste 15 Sudeste 0 -- -- 95
2019-04-18 02:00:00 10.1 13 Sudeste 17 Sudeste 0 -- -- 95
2019-04-18 01:00:00 10.3 14 Sudeste 24 Sudeste 0 -- -- 94
2019-04-18 00:00:00 10.7 15 Sur 24 Sur 0.2 -- -- 94
2019-04-17 23:00:00 10.9 10 Sur 16 Sudeste 1.2 -- -- 94
2019-04-17 22:00:00 11.3 6 Sudeste 12 Sudeste 0.2 -- -- 92
2019-04-17 21:00:00 11.4 6 Sudoeste 22 Sudoeste 0.2 -- -- 91
2019-04-17 20:00:00 12.5 16 Sudoeste 24 Sudoeste 0.4 -- -- 89
2019-04-17 19:00:00 13.4 4 Sudeste 12 Sur 0.2 -- -- 87
2019-04-17 18:00:00 12.9 5 Sudoeste 27 Sudoeste 1.4 -- -- 91
2019-04-17 17:00:00 12.8 21 Sudoeste 36 Sudoeste 0.4 -- -- 87
2019-04-17 16:00:00 16.4 21 Sudoeste 45 Sudeste 0 -- -- 74
2019-04-17 15:00:00 17.9 26 Sudeste 46 Sudeste 0 -- -- 53
2019-04-17 14:00:00 18.6 31 Sudeste 48 Sudeste 0 -- -- 52
2019-04-17 13:00:00 17 26 Este 45 Sudeste 0 -- -- 55
2019-04-17 12:00:00 15.3 17 Este 27 Este 0 -- -- 60
2019-04-17 11:00:00 13.2 9 Este 18 Este 0 -- -- 65
2019-04-17 10:00:00 12.6 12 Este 18 Este 0 -- -- 68
2019-04-17 09:00:00 12.1 7 Sudeste 21 Sudeste 0 -- -- 69
2019-04-17 08:00:00 11.5 16 Sudeste 21 Sudeste 0 -- -- 69
2019-04-17 07:00:00 11.2 10 Sudeste 15 Sudeste 0 -- -- 66
2019-04-17 06:00:00 11.8 12 Sudeste 19 Sudeste 0 -- -- 63
2019-04-17 05:00:00 12.5 14 Sudeste 19 Sudeste 0 -- -- 60
2019-04-17 04:00:00 13.8 11 Sudeste 19 Sur 0 -- -- 54
2019-04-17 03:00:00 15 11 Sudeste 27 Sur 0 -- -- 47
2019-04-17 02:00:00 16.4 18 Sur 28 Sur 0 -- -- 42
2019-04-17 01:00:00 15.9 14 Sudeste 21 Sudeste 0 -- -- 50
2019-04-17 00:00:00 15.9 14 Sudeste 18 Sudeste 0 -- -- 49
2019-04-16 23:00:00 16.7 12 Sudeste 19 Este 0 -- -- 45
2019-04-16 22:00:00 18.2 10 Este 21 Este 0 -- -- 40
2019-04-16 21:00:00 19.3 8 Este 15 Este 0 -- -- 41
2019-04-16 20:00:00 20.9 10 Este 27 Este 0 -- -- 38
2019-04-16 19:00:00 21.8 16 Sudeste 33 Este 0 -- -- 35
2019-04-16 18:00:00 22.5 17 Sudeste 36 Sudeste 0 -- -- 31
2019-04-16 17:00:00 22.3 17 Sudeste 37 Sudeste 0 -- -- 32
2019-04-16 16:00:00 21.8 16 Sudeste 30 Sudeste 0 -- -- 34
2019-04-16 15:00:00 20.9 14 Este 30 Sudeste 0 -- -- 36
2019-04-16 14:00:00 19.3 15 Sudeste 26 Este 0 -- -- 41
2019-04-16 13:00:00 17.6 12 Este 24 Sudeste 0 -- -- 52
2019-04-16 12:00:00 16 9 Este 15 Sudeste 0 -- -- 59
2019-04-16 11:00:00 13.4 9 Este 15 Este 0 -- -- 71
2019-04-16 10:00:00 11.1 5 Este 9 Este 0 -- -- 79
2019-04-16 09:00:00 7.3 0 Calma 3 Noroeste 0 -- -- 89
2019-04-16 08:00:00 5.9 0 Calma 4 Norte 0 -- -- 92
2019-04-16 07:00:00 6.3 3 Norte 4 Norte 0 -- -- 90
2019-04-16 06:00:00 7.8 4 Este 5 Nordeste 0 -- -- 88
2019-04-16 05:00:00 7.7 4 Nordeste 6 Este 0 -- -- 89
2019-04-16 04:00:00 8 0 Calma 9 Sudoeste 0 -- -- 84
2019-04-16 03:00:00 9.1 5 Sudoeste 10 Sudoeste 0 -- -- 82
2019-04-16 02:00:00 9.7 9 Sudoeste 13 Sudoeste 0 -- -- 81
2019-04-16 01:00:00 10.6 4 Sudoeste 13 Sudoeste 0 -- -- 76
2019-04-16 00:00:00 11 5 Oeste 10 Noroeste 0 -- -- 73
2019-04-15 23:00:00 12.3 10 Noroeste 18 Noroeste 0 -- -- 71
2019-04-15 22:00:00 13.9 10 Oeste 21 Oeste 0 -- -- 64
2019-04-15 21:00:00 16.1 17 Oeste 35 Sudoeste 0 -- -- 53
2019-04-15 20:00:00 17.8 24 Sudoeste 42 Sudoeste 0 -- -- 50
2019-04-15 19:00:00 18.8 26 Sudoeste 38 Sudoeste 0 -- -- 52
2019-04-15 18:00:00 19.4 21 Sudoeste 35 Sudoeste 0 -- -- 52
2019-04-15 17:00:00 17 10 Sudoeste 25 Sudoeste 0 -- -- 69
2019-04-15 16:00:00 14.1 18 Sudoeste 28 Sudoeste 0.2 -- -- 83
2019-04-15 15:00:00 14.4 15 Sudoeste 53 Sudoeste 0 -- -- 74
2019-04-15 14:00:00 17.1 36 Sudoeste 64 Sudoeste 0 -- -- 61
2019-04-15 13:00:00 19.3 26 Sudoeste 40 Sudoeste 0 -- -- 56
2019-04-15 12:00:00 17.3 17 Sudoeste 36 Sudoeste 0 -- -- 64
2019-04-15 11:00:00 15.7 23 Sudoeste 35 Sudoeste 0 -- -- 77
2019-04-15 10:00:00 14.6 12 Sudoeste 19 Sudoeste 0 -- -- 84
2019-04-15 09:00:00 13.8 11 Sudoeste 16 Sudoeste 0 -- -- 92
2019-04-15 08:00:00 12.8 3 Sudoeste 11 Sur 0 -- -- 91
2019-04-15 07:00:00 13.6 2 Sudoeste 10 Sudeste 0 -- -- 87
2019-04-15 06:00:00 14 3 Este 9 Este 0 -- -- 86
2019-04-15 05:00:00 14.3 4 Este 12 Este 0 -- -- 87
2019-04-15 04:00:00 15 5 Este 10 Este 0 -- -- 86
2019-04-15 03:00:00 15.9 0 Calma 8 Sudeste 0 -- -- 80
2019-04-15 02:00:00 16.5 4 Sudeste 5 Este 0 -- -- 81
2019-04-15 01:00:00 16.6 0 Calma 3 Noroeste 0 -- -- 79
2019-04-15 00:00:00 17.3 2 Noroeste 4 Oeste 0 -- -- 75
2019-04-14 23:00:00 17.9 4 Oeste 9 Sudoeste 0 -- -- 73
2019-04-14 22:00:00 18.7 5 Sudoeste 8 Sudoeste 0 -- -- 67
2019-04-14 21:00:00 20.3 5 Sudoeste 18 Sudoeste 0 -- -- 61
2019-04-14 20:00:00 21.7 13 Sudoeste 20 Sudoeste 0 -- -- 56
2019-04-14 19:00:00 22.8 14 Sudoeste 20 Sudoeste 0 -- -- 50
2019-04-14 18:00:00 24.8 8 Sudoeste 24 Sudoeste 0 -- -- 46
2019-04-14 17:00:00 23.9 7 Sudoeste 23 Sudoeste 0 -- -- 51
2019-04-14 16:00:00 23.3 10 Sudoeste 21 Sudoeste 0 -- -- 52
2019-04-14 15:00:00 22.3 12 Sudoeste 20 Sudoeste 0 -- -- 59
2019-04-14 14:00:00 21 8 Sudoeste 17 Sudoeste 0 -- -- 64
2019-04-14 13:00:00 20.2 7 Oeste 13 Sudoeste 0 -- -- 67
2019-04-14 12:00:00 17.9 4 Oeste 11 Oeste 0 -- -- 77
2019-04-14 11:00:00 16.5 3 Oeste 12 Sudoeste 0 -- -- 83
2019-04-14 10:00:00 14.2 5 Oeste 12 Oeste 0 -- -- 92
2019-04-14 09:00:00 13.7 8 Sudoeste 14 Oeste 0 -- -- 93
2019-04-14 08:00:00 13.6 8 Sudoeste 14 Sudoeste 0 -- -- 94
2019-04-14 07:00:00 13.5 4 Oeste 12 Oeste 0 -- -- 94
2019-04-14 06:00:00 13.4 5 Oeste 19 Oeste 0 -- -- 94
2019-04-14 05:00:00 13.2 10 Oeste 22 Sudoeste 0 -- -- 94
2019-04-14 04:00:00 13.3 13 Sudoeste 20 Sudoeste 0 -- -- 94
2019-04-14 03:00:00 13.4 2 Sudoeste 14 Sudoeste 0 -- -- 91
2019-04-14 02:00:00 13.8 8 Sudoeste 24 Sudoeste 0 -- -- 89
2019-04-14 01:00:00 14.6 13 Sudoeste 24 Sudoeste 0 -- -- 86
2019-04-14 00:00:00 15 16 Sudoeste 27 Sudoeste 0 -- -- 82
2019-04-13 23:00:00 16 17 Sudoeste 26 Sudoeste 0 -- -- 76
2019-04-13 22:00:00 17.2 18 Sudoeste 27 Sudoeste 0 -- -- 68
2019-04-13 21:00:00 18.5 16 Sudoeste 27 Sudoeste 0 -- -- 61
2019-04-13 20:00:00 19.7 14 Sudoeste 28 Sudoeste 0 -- -- 52
2019-04-13 19:00:00 21.3 14 Sudoeste 27 Sudoeste 0 -- -- 42
2019-04-13 18:00:00 20.9 12 Oeste 32 Oeste 0 -- -- 35
2019-04-13 17:00:00 22.8 17 Sudoeste 30 Sudoeste 0 -- -- 30
2019-04-13 16:00:00 22.7 9 Sudoeste 27 Sudoeste 0 -- -- 28
2019-04-13 15:00:00 21.9 6 Sudoeste 20 Sudoeste 0 -- -- 38
2019-04-13 14:00:00 20.5 6 Sudoeste 14 Sudoeste 0 -- -- 45
2019-04-13 13:00:00 18.9 3 Oeste 9 Sudeste 0 -- -- 50
2019-04-13 12:00:00 16.4 4 Este 9 Oeste 0 -- -- 56
2019-04-13 11:00:00 14 6 Sudoeste 10 Oeste 0 -- -- 70
2019-04-13 10:00:00 11.3 0 Calma 4 Noroeste 0 -- -- 76
2019-04-13 09:00:00 9.7 0 Calma 4 Noroeste 0 -- -- 78
2019-04-13 08:00:00 9.6 0 Calma 5 Oeste 0 -- -- 79
2019-04-13 07:00:00 10 2 Noroeste 7 Sudoeste 0 -- -- 76
2019-04-13 06:00:00 10.1 4 Sudoeste 8 Sudoeste 0 -- -- 75
2019-04-13 05:00:00 9.6 0 Calma 4 Norte 0 -- -- 73
2019-04-13 04:00:00 10.1 4 Norte 8 Sur 0 -- -- 74
2019-04-13 03:00:00 11.6 5 Sudoeste 11 Sudoeste 0 -- -- 69
2019-04-13 02:00:00 11.6 0 Calma 9 Sudoeste 0 -- -- 63
2019-04-13 01:00:00 13.3 5 Sudoeste 12 Sudoeste 0 -- -- 57
2019-04-13 00:00:00 14.2 3 Sudoeste 14 Noroeste 0 -- -- 53
2019-04-12 23:00:00 14.6 3 Oeste 15 Sudoeste 0 -- -- 51
2019-04-12 22:00:00 16.1 13 Sudoeste 16 Sudoeste 0 -- -- 46
2019-04-12 21:00:00 17.9 12 Sudoeste 16 Sudoeste 0 -- -- 40
2019-04-12 20:00:00 20.3 10 Sudoeste 21 Sudoeste 0 -- -- 34
2019-04-12 19:00:00 21.8 10 Sudoeste 23 Sudoeste 0 -- -- 32
2019-04-12 18:00:00 22.2 7 Sudoeste 23 Sudoeste 0 -- -- 32
2019-04-12 17:00:00 21.5 7 Noroeste 23 Noroeste 0 -- -- 34
2019-04-12 16:00:00 21.3 9 Sudoeste 20 Sur 0 -- -- 33
2019-04-12 15:00:00 19.2 10 Norte 20 Oeste 0 -- -- 34
2019-04-12 14:00:00 18.9 11 Nordeste 22 Nordeste 0 -- -- 36
2019-04-12 13:00:00 18.3 9 Sudeste 19 Este 0 -- -- 36
2019-04-12 12:00:00 17 8 Este 16 Este 0 -- -- 39
2019-04-12 11:00:00 15 3 Nordeste 10 Nordeste 0 -- -- 52
2019-04-12 10:00:00 12.5 4 Nordeste 10 Nordeste 0 -- -- 64
2019-04-12 09:00:00 9.5 4 Nordeste 8 Nordeste 0 -- -- 71
2019-04-12 08:00:00 7.1 0 Calma 12 Nordeste 0 -- -- 74
2019-04-12 07:00:00 7.4 9 Este 12 Nordeste 0 -- -- 69
2019-04-12 06:00:00 7.6 9 Este 12 Este 0 -- -- 68
2019-04-12 05:00:00 9.1 4 Norte 13 Norte 0 -- -- 66
2019-04-12 04:00:00 8.9 5 Norte 10 Noroeste 0 -- -- 62
2019-04-12 03:00:00 9.1 5 Noroeste 8 Oeste 0 -- -- 60
2019-04-12 02:00:00 9.6 3 Oeste 10 Norte 0 -- -- 58
2019-04-12 01:00:00 10.5 4 Norte 12 Norte 0 -- -- 55
2019-04-12 00:00:00 11.5 6 Norte 9 Norte 0 -- -- 50
2019-04-11 23:00:00 12.4 4 Norte 8 Norte 0 -- -- 47
2019-04-11 22:00:00 13.1 6 Norte 12 Norte 0 -- -- 46
2019-04-11 21:00:00 14.8 6 Nordeste 17 Norte 0 -- -- 42
2019-04-11 20:00:00 16.5 10 Norte 20 Norte 0 -- -- 39
2019-04-11 19:00:00 17.8 11 Norte 24 Norte 0 -- -- 37
2019-04-11 18:00:00 18.4 16 Norte 27 Norte 0 -- -- 34
2019-04-11 17:00:00 19.5 13 Noroeste 24 Noroeste 0 -- -- 31
2019-04-11 16:00:00 18.7 7 Norte 23 Norte 0 -- -- 35
2019-04-11 15:00:00 18.2 13 Norte 22 Norte 0 -- -- 38
2019-04-11 14:00:00 17.9 10 Norte 21 Noroeste 0 -- -- 40
2019-04-11 13:00:00 17 9 Noroeste 17 Noroeste 0 -- -- 41
2019-04-11 12:00:00 15.3 4 Noroeste 12 Noroeste 0 -- -- 52
2019-04-11 11:00:00 13.2 5 Noroeste 11 Oeste 0 -- -- 60
2019-04-11 10:00:00 11 4 Noroeste 9 Norte 0 -- -- 71
2019-04-11 09:00:00 9 2 Nordeste 7 Noroeste 0 -- -- 75
2019-04-11 08:00:00 7.1 3 Noroeste 5 Noroeste 0 -- -- 81
2019-04-11 07:00:00 7.5 0 Calma 4 Sudeste 0 -- -- 81
2019-04-11 06:00:00 7.2 3 Este 10 Noroeste 0 -- -- 82
2019-04-11 05:00:00 8 3 Sudoeste 18 Norte 0 -- -- 80
2019-04-11 04:00:00 9.1 11 Noroeste 23 Noroeste 0 -- -- 77
2019-04-11 03:00:00 8.5 9 Sudoeste 18 Sudoeste 0 -- -- 80
2019-04-11 02:00:00 8 5 Sudoeste 8 Sudoeste 0 -- -- 78
2019-04-11 01:00:00 9 2 Oeste 10 Noroeste 0 -- -- 74
2019-04-11 00:00:00 9.5 3 Sudeste 13 Nordeste 0 -- -- 69
2019-04-10 23:00:00 11 8 Este 17 Este 0 -- -- 64
2019-04-10 22:00:00 12.6 12 Noroeste 24 Oeste 0 -- -- 62
2019-04-10 21:00:00 14.1 12 Oeste 30 Sudoeste 0 -- -- 57
2019-04-10 20:00:00 15.8 19 Oeste 35 Oeste 0 -- -- 51
2019-04-10 19:00:00 16.9 19 Oeste 35 Oeste 0 -- -- 47
2019-04-10 18:00:00 17.6 21 Oeste 35 Oeste 0 -- -- 43
2019-04-10 17:00:00 16 17 Oeste 39 Oeste 0 -- -- 50
2019-04-10 16:00:00 16.8 21 Oeste 40 Sudoeste 0 -- -- 49
2019-04-10 15:00:00 16.4 17 Oeste 33 Sudoeste 0 -- -- 50
2019-04-10 14:00:00 14.7 20 Sudoeste 39 Oeste 0 -- -- 64
2019-04-10 13:00:00 14 14 Oeste 28 Oeste 0 -- -- 60
2019-04-10 12:00:00 13.1 11 Oeste 27 Sudoeste 0 -- -- 64
2019-04-10 11:00:00 10.8 13 Sudoeste 20 Sudoeste 0 -- -- 78
2019-04-10 10:00:00 9 10 Sudoeste 21 Sudoeste 0 -- -- 87
2019-04-10 09:00:00 7.1 13 Sudoeste 22 Sudoeste 0 -- -- 93
2019-04-10 08:00:00 6.4 11 Sur 15 Sur 0 -- -- 93
2019-04-10 07:00:00 5.8 2 Oeste 6 Norte 0 -- -- 91
2019-04-10 06:00:00 6.7 4 Sudoeste 15 Sur 0 -- -- 90
2019-04-10 05:00:00 7.2 3 Sudoeste 17 Sudoeste 0 -- -- 88
2019-04-10 04:00:00 8 13 Sudoeste 18 Sudoeste 0.2 -- -- 85
2019-04-10 03:00:00 7.5 13 Sudoeste 19 Sudoeste 0 -- -- 85
2019-04-10 02:00:00 8.2 13 Sudoeste 22 Sudoeste 0 -- -- 82
2019-04-10 01:00:00 8.2 12 Sudoeste 21 Sudoeste 0 -- -- 81
2019-04-10 00:00:00 9.1 13 Sudoeste 25 Sudoeste 0 -- -- 76
2019-04-09 23:00:00 10.3 18 Sudoeste 37 Sudoeste 0 -- -- 69
2019-04-09 22:00:00 11.1 26 Sudoeste 36 Sudoeste 0 -- -- 67
2019-04-09 21:00:00 11.8 23 Oeste 37 Sudoeste 0 -- -- 66
2019-04-09 20:00:00 13.2 15 Oeste 37 Oeste 0 -- -- 62
2019-04-09 19:00:00 14 19 Oeste 47 Sudoeste 0.2 -- -- 63
2019-04-09 18:00:00 15.1 17 Oeste 41 Sudoeste 0 -- -- 54
2019-04-09 17:00:00 16.2 22 Oeste 45 Sudoeste 0 -- -- 50
2019-04-09 16:00:00 15.5 19 Oeste 39 Oeste 0 -- -- 59
2019-04-09 15:00:00 14.5 17 Sudoeste 32 Sudoeste 0 -- -- 68
2019-04-09 14:00:00 10.9 11 Oeste 33 Sudoeste 1 -- -- 83
2019-04-09 13:00:00 12.8 20 Sudoeste 33 Sudoeste 0 -- -- 73
2019-04-09 12:00:00 10.7 23 Sudoeste 37 Sudoeste 0 -- -- 83
2019-04-09 11:00:00 9.5 19 Sudoeste 42 Sudoeste 0.2 -- -- 91
2019-04-09 10:00:00 9.7 24 Sudoeste 36 Sudoeste 0 -- -- 86
2019-04-09 09:00:00 8.5 17 Sudoeste 27 Sudoeste 0 -- -- 92
2019-04-09 08:00:00 8.5 14 Sudoeste 23 Sudoeste 0 -- -- 92
2019-04-09 07:00:00 8.3 13 Sudoeste 26 Sudoeste 0 -- -- 92
2019-04-09 06:00:00 8.6 15 Sudoeste 27 Sudoeste 0 -- -- 92
2019-04-09 05:00:00 8.5 17 Sudoeste 30 Sudoeste 0 -- -- 92
2019-04-09 04:00:00 7.7 16 Sur 22 Sur 0 -- -- 90
2019-04-09 03:00:00 7.6 14 Sur 19 Sur 0 -- -- 89
2019-04-09 02:00:00 8.1 14 Sudoeste 22 Sudoeste 0 -- -- 87
2019-04-09 01:00:00 7.7 12 Sudoeste 18 Sudoeste 0 -- -- 88
2019-04-09 00:00:00 8.3 11 Sudoeste 17 Sur 0 -- -- 84
2019-04-08 23:00:00 9.2 12 Sudoeste 20 Sudoeste 0 -- -- 81
2019-04-08 22:00:00 9.9 14 Sudoeste 24 Sudoeste 0 -- -- 76
2019-04-08 21:00:00 11.1 16 Sudoeste 28 Sudoeste 0 -- -- 71
2019-04-08 20:00:00 12.7 21 Sudoeste 38 Sudoeste 0 -- -- 63
2019-04-08 19:00:00 13.4 27 Sudoeste 38 Sudoeste 0 -- -- 66
2019-04-08 18:00:00 14.5 19 Sudoeste 42 Sudoeste 0 -- -- 56
2019-04-08 17:00:00 14.8 30 Sudoeste 45 Sudoeste 0 -- -- 57
2019-04-08 16:00:00 15.9 20 Sudoeste 41 Sudoeste 0 -- -- 54
2019-04-08 15:00:00 15.3 15 Oeste 29 Sudoeste 0 -- -- 54
2019-04-08 14:00:00 15.4 15 Sudoeste 33 Sudoeste 0 -- -- 56
2019-04-08 13:00:00 15 15 Oeste 32 Sudoeste 0 -- -- 60
2019-04-08 12:00:00 13.8 13 Oeste 27 Sudoeste 0 -- -- 72
2019-04-08 11:00:00 12.8 18 Sudoeste 27 Oeste 0 -- -- 80
2019-04-08 10:00:00 10.8 11 Sudoeste 21 Sudoeste 0 -- -- 93
2019-04-08 09:00:00 9.7 13 Sudoeste 22 Sudoeste 0 -- -- 97
2019-04-08 08:00:00 9.6 14 Sudoeste 22 Sudoeste 0 -- -- 97
2019-04-08 07:00:00 9.7 14 Sudoeste 22 Sudoeste 0 -- -- 96
2019-04-08 06:00:00 10.3 15 Sudoeste 26 Sudoeste 0.2 -- -- 96
2019-04-08 05:00:00 11.1 16 Sudoeste 40 Sudoeste 0 -- -- 96
2019-04-08 04:00:00 11.2 16 Sudoeste 26 Sur 1.6 -- -- 96
2019-04-08 03:00:00 11.2 13 Sur 21 Sur 0.2 -- -- 94
2019-04-08 02:00:00 11.5 10 Sur 25 Sur 0.4 -- -- 94
2019-04-08 01:00:00 11.6 13 Sur 21 Sur 0 -- -- 92
2019-04-08 00:00:00 11.4 9 Sur 21 Sudoeste 0 -- -- 91
2019-04-07 23:00:00 11.8 15 Sudoeste 21 Sudoeste 0 -- -- 89
2019-04-07 22:00:00 11.7 14 Sur 20 Sudoeste 0 -- -- 92
2019-04-07 21:00:00 12 12 Sudoeste 15 Sur 0 -- -- 94
2019-04-07 20:00:00 12 11 Sur 16 Sur 0 -- -- 94
2019-04-07 19:00:00 11.5 6 Sur 15 Sur 0.2 -- -- 95
2019-04-07 18:00:00 11.2 5 Sur 17 Sur 0.2 -- -- 94
2019-04-07 17:00:00 11 9 Sur 23 Sudeste 0.8 -- -- 93
2019-04-07 16:00:00 11.3 17 Sur 25 Sur 0 -- -- 85
2019-04-07 15:00:00 11.5 13 Sudoeste 22 Sudoeste 0 -- -- 83
2019-04-07 14:00:00 11.3 8 Sudoeste 26 Sur 0.2 -- -- 82
2019-04-07 13:00:00 11.3 6 Sur 17 Sur 0 -- -- 79
2019-04-07 12:00:00 10.5 10 Sudoeste 18 Sudoeste 0 -- -- 84
2019-04-07 11:00:00 9.1 11 Sudoeste 18 Sudoeste 0 -- -- 90
2019-04-07 10:00:00 8.1 5 Sudoeste 14 Sudoeste 0 -- -- 94
2019-04-07 09:00:00 7.6 10 Sudoeste 19 Sudoeste 0 -- -- 95
2019-04-07 08:00:00 7.2 11 Sudoeste 18 Sudoeste 0 -- -- 95
2019-04-07 07:00:00 7.3 12 Sudoeste 18 Sudoeste 0 -- -- 94
2019-04-07 06:00:00 7.3 13 Sudoeste 24 Sudoeste 0 -- -- 92
2019-04-07 05:00:00 7.2 15 Sudoeste 22 Sudoeste 0 -- -- 95
2019-04-07 04:00:00 7.2 12 Sudoeste 21 Sudoeste 0 -- -- 95
2019-04-07 03:00:00 7.2 13 Sudoeste 21 Sudoeste 0 -- -- 95
2019-04-07 02:00:00 7.3 12 Sudoeste 21 Sudoeste 0 -- -- 95
2019-04-07 01:00:00 7.2 15 Sudoeste 22 Sudoeste 0 -- -- 94
2019-04-07 00:00:00 7.2 12 Sudoeste 23 Sudoeste 0 -- -- 89
2019-04-06 23:00:00 7.1 14 Sudoeste 21 Sudoeste 0 -- -- 89
2019-04-06 22:00:00 7.3 12 Sudoeste 29 Sudoeste 0 -- -- 81
2019-04-06 21:00:00 7.6 22 Sudoeste 35 Sudoeste 0 -- -- 76
2019-04-06 20:00:00 8.6 18 Sudoeste 33 Sudoeste 0 -- -- 81
2019-04-06 19:00:00 11.8 21 Sudoeste 38 Sudoeste 0 -- -- 64
2019-04-06 18:00:00 10.9 21 Oeste 48 Oeste 0 -- -- 67
2019-04-06 17:00:00 10.4 26 Oeste 43 Sudoeste 0.2 -- -- 72
2019-04-06 16:00:00 8.2 24 Sudoeste 45 Oeste 0 -- -- 81
2019-04-06 15:00:00 7.7 21 Sudoeste 45 Sudoeste 0.2 -- -- 83
2019-04-06 14:00:00 10.7 27 Sudoeste 41 Sudoeste 0 -- -- 71
2019-04-06 13:00:00 9 21 Sudoeste 42 Sudoeste 0.2 -- -- 80
2019-04-06 12:00:00 5.9 15 Sudoeste 31 Oeste 0.6 -- -- 91
2019-04-06 11:00:00 6.1 35 Sudoeste 53 Sudoeste 1.6 -- -- 89
2019-04-06 10:00:00 6.8 20 Sudoeste 30 Sudoeste 0 -- -- 92
2019-04-06 09:00:00 6.1 12 Sudoeste 31 Oeste 0.4 -- -- 94
2019-04-06 08:00:00 6.1 17 Sudoeste 28 Sudoeste 0.2 -- -- 92
2019-04-06 07:00:00 6.1 18 Sudoeste 30 Sudoeste 0 -- -- 91
2019-04-06 06:00:00 6.1 15 Sudoeste 27 Sudoeste 0.2 -- -- 93
2019-04-06 05:00:00 5.9 18 Sudoeste 29 Sudoeste 0 -- -- 92
2019-04-06 04:00:00 5.4 18 Sudoeste 27 Sudoeste 0 -- -- 92
2019-04-06 03:00:00 5.7 17 Sudoeste 24 Sudoeste 0 -- -- 92
2019-04-06 02:00:00 5.6 14 Sudoeste 25 Sudoeste 0 -- -- 92
2019-04-06 01:00:00 5.4 18 Sudoeste 24 Sudoeste 0 -- -- 92
2019-04-06 00:00:00 5.3 12 Sudoeste 22 Sudoeste 0 -- -- 89
2019-04-05 23:00:00 5.3 15 Sudoeste 27 Sudoeste 0 -- -- 87
2019-04-05 22:00:00 5.3 15 Sudoeste 22 Sudoeste 0 -- -- 87
2019-04-05 21:00:00 6.5 13 Oeste 50 Oeste 0 -- -- 80
2019-04-05 20:00:00 8.9 26 Sudoeste 37 Sudoeste 0 -- -- 77
2019-04-05 19:00:00 9.4 18 Sudoeste 32 Sudoeste 0 -- -- 75
2019-04-05 18:00:00 10 19 Sudoeste 37 Sudoeste 0.2 -- -- 74
2019-04-05 17:00:00 9.9 16 Oeste 55 Sudoeste 0 -- -- 63
2019-04-05 16:00:00 12.2 28 Sudoeste 46 Sudoeste 0 -- -- 54
2019-04-05 15:00:00 12.4 24 Sudoeste 37 Sudoeste 0 -- -- 54
2019-04-05 14:00:00 10.2 17 Oeste 34 Sudoeste 0 -- -- 71
2019-04-05 13:00:00 8.1 18 Sudoeste 29 Sudoeste 0 -- -- 80
2019-04-05 12:00:00 6 19 Sudoeste 37 Sudoeste 0.2 -- -- 88
2019-04-05 11:00:00 6.6 11 Sudoeste 30 Sudoeste 0 -- -- 87
2019-04-05 10:00:00 5 23 Sudoeste 42 Sudoeste 0.2 -- -- 89
2019-04-05 09:00:00 5.9 19 Sudoeste 26 Sudoeste 0 -- -- 94
2019-04-05 08:00:00 5.9 13 Sudoeste 19 Sudoeste 0 -- -- 94
2019-04-05 07:00:00 6.6 12 Sudoeste 19 Sudoeste 0 -- -- 94
2019-04-05 06:00:00 7 12 Sudoeste 29 Sudoeste 0.2 -- -- 94
2019-04-05 05:00:00 7.6 20 Sudoeste 30 Sudoeste 0.2 -- -- 93
2019-04-05 04:00:00 7.8 12 Sur 27 Sudoeste 0 -- -- 93
2019-04-05 03:00:00 7.5 17 Sur 32 Sur 0.2 -- -- 93
2019-04-05 02:00:00 7.1 10 Sur 26 Sur 1.4 -- -- 93
2019-04-05 01:00:00 7.3 10 Sur 14 Sur 0.6 -- -- 91
2019-04-05 00:00:00 7.4 10 Sur 15 Sur 0 -- -- 88
2019-04-04 23:00:00 6.9 8 Sur 18 Sudoeste 0.2 -- -- 89
2019-04-04 22:00:00 7.3 11 Sudoeste 25 Oeste 0.2 -- -- 85
2019-04-04 21:00:00 8.3 9 Oeste 32 Sudoeste 0.2 -- -- 79
2019-04-04 20:00:00 11.5 24 Sudoeste 44 Sudoeste 0 -- -- 55
2019-04-04 19:00:00 14.6 25 Sudoeste 38 Sudoeste 0 -- -- 36
2019-04-04 18:00:00 15.6 21 Sudoeste 34 Sudoeste 0 -- -- 33
2019-04-04 17:00:00 16.6 21 Sudoeste 35 Sudoeste 0 -- -- 23
2019-04-04 16:00:00 16.6 17 Sudoeste 32 Sudoeste 0 -- -- 28
2019-04-04 15:00:00 15.6 9 Sudoeste 22 Sudoeste 0 -- -- 29
2019-04-04 14:00:00 14.4 5 Sudoeste 17 Sudoeste 0 -- -- 30
2019-04-04 13:00:00 13.1 3 Oeste 17 Norte 0 -- -- 32
2019-04-04 12:00:00 11.8 10 Norte 20 Norte 0 -- -- 38
2019-04-04 11:00:00 9.8 11 Norte 24 Noroeste 0 -- -- 43
2019-04-04 10:00:00 7.2 10 Norte 19 Noroeste 0 -- -- 55
2019-04-04 09:00:00 3.9 8 Norte 16 Nordeste 0 -- -- 67
2019-04-04 08:00:00 3.1 7 Norte 12 Norte 0 -- -- 66
2019-04-04 07:00:00 3.7 7 Norte 15 Noroeste 0 -- -- 63
2019-04-04 06:00:00 4.5 4 Nordeste 22 Noroeste 0 -- -- 60
2019-04-04 05:00:00 5.5 10 Noroeste 27 Noroeste 0 -- -- 55
2019-04-04 04:00:00 6.3 19 Noroeste 27 Noroeste 0 -- -- 50
2019-04-04 03:00:00 6.9 16 Noroeste 25 Noroeste 0 -- -- 49
2019-04-04 02:00:00 7.4 9 Noroeste 25 Noroeste 0 -- -- 47
2019-04-04 01:00:00 8.3 14 Noroeste 25 Noroeste 0 -- -- 47
2019-04-04 00:00:00 9.4 14 Noroeste 27 Noroeste 0 -- -- 50
2019-04-03 23:00:00 10.7 14 Noroeste 28 Noroeste 0 -- -- 46
2019-04-03 22:00:00 11.8 17 Noroeste 30 Noroeste 0 -- -- 41
2019-04-03 21:00:00 13.2 14 Noroeste 28 Norte 0 -- -- 37
2019-04-03 20:00:00 14.6 17 Norte 35 Norte 0 -- -- 34
2019-04-03 19:00:00 15.8 20 Norte 37 Norte 0 -- -- 32
2019-04-03 18:00:00 16.1 19 Norte 43 Norte 0 -- -- 32
2019-04-03 17:00:00 16.7 25 Noroeste 38 Norte 0 -- -- 32
2019-04-03 16:00:00 16.4 22 Norte 42 Noroeste 0 -- -- 33
2019-04-03 15:00:00 16.1 23 Noroeste 40 Noroeste 0 -- -- 35
2019-04-03 14:00:00 15.7 24 Noroeste 37 Noroeste 0 -- -- 35
2019-04-03 13:00:00 14.6 22 Noroeste 38 Noroeste 0 -- -- 40
2019-04-03 12:00:00 13.9 17 Noroeste 30 Noroeste 0 -- -- 52
2019-04-03 11:00:00 11.6 4 Norte 8 Noroeste 0 -- -- 64
2019-04-03 10:00:00 8.1 2 Noroeste 8 Sudoeste 0 -- -- 78
2019-04-03 09:00:00 5.5 5 Sudoeste 15 Sudoeste 0 -- -- 88
2019-04-03 08:00:00 5 6 Sur 10 Sur 0 -- -- 89
2019-04-03 07:00:00 5.1 2 Sudoeste 10 Sudoeste 0 -- -- 81
2019-04-03 06:00:00 6.4 4 Sudoeste 9 Sudoeste 0 -- -- 81
2019-04-03 05:00:00 7.6 8 Sudoeste 15 Sudoeste 0 -- -- 77
2019-04-03 04:00:00 8 5 Oeste 11 Oeste 0 -- -- 77
2019-04-03 03:00:00 9.1 10 Sudoeste 18 Sudoeste 0 -- -- 72
2019-04-03 02:00:00 10.1 10 Sudoeste 18 Sudoeste 0 -- -- 71
2019-04-03 01:00:00 11.1 13 Sudoeste 19 Sudoeste 0 -- -- 68
2019-04-03 00:00:00 12.3 13 Sudoeste 18 Sudoeste 0 -- -- 65
2019-04-02 23:00:00 13.5 14 Sudoeste 20 Sudoeste 0 -- -- 58
2019-04-02 22:00:00 15.5 10 Oeste 21 Sudoeste 0 -- -- 52
2019-04-02 21:00:00 17.3 12 Sudoeste 29 Oeste 0 -- -- 50
2019-04-02 20:00:00 19.9 14 Sudoeste 32 Sudoeste 0 -- -- 42
2019-04-02 19:00:00 21.1 19 Sudoeste 30 Sudoeste 0 -- -- 38
2019-04-02 18:00:00 22.1 14 Oeste 28 Sudoeste 0 -- -- 33
2019-04-02 17:00:00 22.7 10 Oeste 28 Sudoeste 0 -- -- 35
2019-04-02 16:00:00 21 8 Oeste 19 Sudoeste 0 -- -- 41
2019-04-02 15:00:00 20.2 8 Oeste 17 Sudoeste 0 -- -- 42
2019-04-02 14:00:00 19.4 5 Noroeste 18 Sudoeste 0 -- -- 46
2019-04-02 13:00:00 18.3 8 Oeste 15 Sudoeste 0 -- -- 53
2019-04-02 12:00:00 15.4 4 Sur 14 Sudoeste 0 -- -- 64
2019-04-02 11:00:00 13 0 Calma 5 Noroeste 0 -- -- 80
2019-04-02 10:00:00 9.3 0 Calma 4 Sudoeste 0 -- -- 96
2019-04-02 09:00:00 6.7 0 Calma 7 Sur 0 -- -- 90
2019-04-02 08:00:00 7.7 3 Oeste 9 Sudoeste 0 -- -- 93
2019-04-02 07:00:00 7.8 0 Calma 9 Sudoeste 0 -- -- 92
2019-04-02 06:00:00 8.9 9 Sudoeste 13 Sudoeste 0 -- -- 90
2019-04-02 05:00:00 8.9 4 Oeste 9 Sudoeste 0 -- -- 88
2019-04-02 04:00:00 8.9 3 Sudeste 20 Sudoeste 0 -- -- 86
2019-04-02 03:00:00 10.1 12 Sudoeste 22 Sudoeste 0 -- -- 83
2019-04-02 02:00:00 10.5 14 Sudoeste 19 Sur 0 -- -- 80
2019-04-02 01:00:00 11.1 5 Sur 7 Sur 0 -- -- 77
2019-04-02 00:00:00 12.2 3 Oeste 12 Sudoeste 0 -- -- 75
2019-04-01 23:00:00 13 3 Oeste 16 Sudoeste 0 -- -- 73
2019-04-01 22:00:00 14 14 Sudoeste 21 Sudoeste 0 -- -- 72
2019-04-01 21:00:00 15.4 4 Sudoeste 6 Sudoeste 0 -- -- 59
2019-04-01 20:00:00 16.7 0 Calma 4 Oeste 0 -- -- 54
2019-04-01 19:00:00 17.1 4 Sudeste 10 Sudeste 0 -- -- 53
2019-04-01 18:00:00 17.5 4 Este 14 Norte 0 -- -- 51
2019-04-01 17:00:00 18.1 4 Norte 12 Noroeste 0 -- -- 48
2019-04-01 16:00:00 16.3 3 Noroeste 9 Sur 0 -- -- 67
2019-04-01 15:00:00 15.1 3 Sur 12 Sur 0.2 -- -- 70
2019-04-01 14:00:00 13.6 7 Sudeste 13 Sudeste 0.2 -- -- 76
2019-04-01 13:00:00 13.1 6 Sudeste 15 Sudeste 0.2 -- -- 78
2019-04-01 12:00:00 13.4 7 Este 15 Sudeste 0 -- -- 73
2019-04-01 11:00:00 12.8 7 Este 12 Este 0 -- -- 74
2019-04-01 10:00:00 11.6 8 Este 17 Nordeste 0 -- -- 78
2019-04-01 09:00:00 10.8 7 Nordeste 13 Nordeste 0 -- -- 79
2019-04-01 08:00:00 11 4 Este 12 Nordeste 0 -- -- 77
2019-04-01 07:00:00 10.9 8 Nordeste 13 Nordeste 0 -- -- 77
2019-04-01 06:00:00 11 4 Nordeste 9 Este 0 -- -- 74
2019-04-01 05:00:00 11.1 6 Este 12 Este 0 -- -- 73
2019-04-01 04:00:00 11.4 7 Este 12 Este 0 -- -- 70
2019-04-01 03:00:00 11.5 6 Nordeste 11 Este 0 -- -- 68
2019-04-01 02:00:00 12.2 10 Este 23 Este 0 -- -- 66
2019-04-01 01:00:00 12.3 8 Este 13 Este 0 -- -- 67
2019-04-01 00:00:00 14.2 6 Sudeste 20 Sudeste 0 -- -- 61
2019-03-31 23:00:00 15 15 Este 26 Este 0 -- -- 54
2019-03-31 22:00:00 15.5 13 Este 20 Este 0 -- -- 51
2019-03-31 21:00:00 16.8 9 Nordeste 20 Nordeste 0 -- -- 45
2019-03-31 20:00:00 17.4 11 Nordeste 25 Nordeste 0 -- -- 45
2019-03-31 19:00:00 19.4 17 Nordeste 28 Nordeste 0 -- -- 39
2019-03-31 18:00:00 20.3 8 Este 21 Este 0 -- -- 36
2019-03-31 17:00:00 21.6 9 Nordeste 23 Este 0 -- -- 33
2019-03-31 16:00:00 21.2 9 Este 21 Nordeste 0 -- -- 37
2019-03-31 15:00:00 20.3 10 Este 23 Este 0 -- -- 39
2019-03-31 14:00:00 18.3 10 Este 28 Este 0 -- -- 44
2019-03-31 13:00:00 17.5 11 Este 23 Este 0 -- -- 46
2019-03-31 12:00:00 15.6 11 Este 25 Este 0 -- -- 51
2019-03-31 11:00:00 13.6 18 Este 28 Este 0 -- -- 57
2019-03-31 10:00:00 12.3 12 Nordeste 25 Nordeste 0 -- -- 60
2019-03-31 09:00:00 11.2 9 Nordeste 18 Nordeste 0 -- -- 62
2019-03-31 08:00:00 10.9 9 Nordeste 17 Nordeste 0 -- -- 60
2019-03-31 07:00:00 10.8 6 Nordeste 12 Nordeste 0 -- -- 57
2019-03-31 06:00:00 11.6 5 Este 10 Este 0 -- -- 53
2019-03-31 05:00:00 10.3 6 Este 9 Sudeste 0 -- -- 55
2019-03-31 03:00:00 11.9 4 Noroeste 5 Noroeste 0 -- -- 48
2019-03-31 01:00:00 13.4 3 Sudeste 33 Sudeste 0 -- -- 44
2019-03-31 00:00:00 13.9 3 Norte 9 Nordeste 0 -- -- 42
2019-03-30 23:00:00 14 3 Nordeste 6 Noroeste 0 -- -- 41
2019-03-30 22:00:00 15.8 6 Nordeste 11 Nordeste 0 -- -- 36
2019-03-30 21:00:00 16.8 5 Nordeste 15 Nordeste 0 -- -- 37
2019-03-30 20:00:00 18 8 Nordeste 11 Nordeste 0 -- -- 36
2019-03-30 19:00:00 19.6 6 Este 15 Este 0 -- -- 30
2019-03-30 18:00:00 20 10 Este 18 Este 0 -- -- 27
2019-03-30 17:00:00 20.4 11 Este 21 Nordeste 0 -- -- 25
2019-03-30 16:00:00 20.8 12 Este 24 Nordeste 0 -- -- 26
2019-03-30 15:00:00 20.4 12 Nordeste 32 Este 0 -- -- 30
2019-03-30 14:00:00 19.8 9 Este 20 Este 0 -- -- 31
2019-03-30 13:00:00 18.3 10 Nordeste 23 Este 0 -- -- 39
2019-03-30 12:00:00 17.2 13 Este 25 Nordeste 0 -- -- 38
2019-03-30 11:00:00 15.4 15 Nordeste 26 Nordeste 0 -- -- 42
2019-03-30 10:00:00 13.5 18 Este 35 Este 0 -- -- 46
2019-03-30 09:00:00 11.1 17 Este 28 Nordeste 0 -- -- 54
2019-03-30 08:00:00 8.2 12 Este 17 Nordeste 0 -- -- 63
2019-03-30 07:00:00 7.1 7 Nordeste 13 Nordeste 0 -- -- 63
2019-03-30 06:00:00 7.8 9 Nordeste 10 Nordeste 0 -- -- 56
2019-03-30 05:00:00 8.5 5 Nordeste 9 Nordeste 0 -- -- 52
2019-03-30 04:00:00 8.9 6 Este 6 Este 0 -- -- 49
2019-03-30 03:00:00 9.1 5 Norte 14 Este 0 -- -- 49
2019-03-30 02:00:00 10.2 5 Nordeste 10 Norte 0 -- -- 43
2019-03-30 01:00:00 9.7 4 Norte 7 Norte 0 -- -- 46
2019-03-30 00:00:00 10.8 0 Calma 3 Noroeste 0 -- -- 41
2019-03-29 23:00:00 12.2 2 Norte 9 Nordeste 0 -- -- 39
2019-03-29 22:00:00 13.9 8 Este 9 Este 0 -- -- 33
2019-03-29 21:00:00 15.7 7 Este 8 Este 0 -- -- 30
2019-03-29 20:00:00 16.8 3 Este 6 Este 0 -- -- 29
2019-03-29 19:00:00 19 5 Este 13 Sudeste 0 -- -- 25
2019-03-29 18:00:00 20.6 9 Sudeste 21 Este 0 -- -- 24
2019-03-29 17:00:00 20.7 12 Este 27 Sudeste 0 -- -- 24
2019-03-29 16:00:00 20.4 15 Este 28 Este 0 -- -- 25
2019-03-29 15:00:00 19.9 16 Este 29 Nordeste 0 -- -- 25
2019-03-29 14:00:00 19 13 Este 27 Este 0 -- -- 24
2019-03-29 13:00:00 18.2 12 Nordeste 21 Nordeste 0 -- -- 28
2019-03-29 12:00:00 17.5 10 Este 21 Nordeste 0 -- -- 30
2019-03-29 11:00:00 15.5 12 Nordeste 20 Nordeste 0 -- -- 33
2019-03-29 10:00:00 13.6 9 Nordeste 17 Nordeste 0 -- -- 36
2019-03-29 09:00:00 10.3 3 Nordeste 9 Este 0 -- -- 51
2019-03-29 08:00:00 7.1 6 Este 14 Nordeste 0 -- -- 55
2019-03-29 07:00:00 7.3 0 Calma 16 Este 0 -- -- 51
2019-03-29 06:00:00 8.1 10 Este 13 Este 0 -- -- 49
2019-03-29 05:00:00 8.4 9 Este 14 Este 0 -- -- 49
2019-03-29 04:00:00 9.8 5 Este 8 Este 0 -- -- 42
2019-03-29 03:00:00 9.8 2 Norte 10 Nordeste 0 -- -- 44
2019-03-29 02:00:00 10.6 6 Este 13 Este 0 -- -- 44
2019-03-29 01:00:00 12.5 8 Este 10 Nordeste 0 -- -- 36
2019-03-29 00:00:00 12.1 3 Norte 4 Norte 0 -- -- 36
2019-03-28 23:00:00 13.4 0 Calma 5 Nordeste 0 -- -- 33
2019-03-28 22:00:00 14.2 2 Nordeste 12 Nordeste 0 -- -- 32
2019-03-28 21:00:00 16 9 Nordeste 17 Nordeste 0 -- -- 28
2019-03-28 20:00:00 17.9 11 Nordeste 15 Nordeste 0 -- -- 25
2019-03-28 19:00:00 19.6 11 Nordeste 21 Este 0 -- -- 23
2019-03-28 18:00:00 21 8 Este 24 Este 0 -- -- 21
2019-03-28 17:00:00 21.4 13 Nordeste 28 Nordeste 0 -- -- 21
2019-03-28 16:00:00 21.6 13 Este 24 Este 0 -- -- 23
2019-03-28 15:00:00 20.8 13 Nordeste 23 Nordeste 0 -- -- 22
2019-03-28 14:00:00 20.1 10 Nordeste 25 Este 0 -- -- 24
2019-03-28 13:00:00 19.1 8 Este 21 Este 0 -- -- 27
2019-03-28 12:00:00 17.5 13 Este 23 Nordeste 0 -- -- 30
2019-03-28 11:00:00 15.3 12 Nordeste 21 Nordeste 0 -- -- 37
2019-03-28 10:00:00 13 11 Este 21 Este 0 -- -- 41
2019-03-28 09:00:00 10.5 11 Nordeste 19 Nordeste 0 -- -- 46
2019-03-28 08:00:00 7.6 8 Este 16 Nordeste 0 -- -- 58
2019-03-28 07:00:00 7.9 3 Este 20 Este 0 -- -- 56
2019-03-28 06:00:00 8 6 Sudeste 11 Sudeste 0 -- -- 56
2019-03-28 05:00:00 8.8 6 Nordeste 15 Este 0 -- -- 54
2019-03-28 04:00:00 10.2 9 Este 12 Este 0 -- -- 52
2019-03-28 03:00:00 11 9 Nordeste 14 Este 0 -- -- 51
2019-03-28 02:00:00 10.3 10 Este 14 Este 0 -- -- 53
2019-03-28 01:00:00 11.2 4 Este 6 Norte 0 -- -- 46
2019-03-28 00:00:00 11.7 4 Norte 7 Noroeste 0 -- -- 46
2019-03-27 23:00:00 12.7 2 Nordeste 9 Este 0 -- -- 42
2019-03-27 22:00:00 13.6 0 Calma 10 Nordeste 0 -- -- 41
2019-03-27 21:00:00 15.4 9 Este 12 Este 0 -- -- 35
2019-03-27 20:00:00 16.6 8 Este 10 Este 0 -- -- 34
2019-03-27 19:00:00 19.4 5 Este 12 Nordeste 0 -- -- 30
2019-03-27 18:00:00 20.2 8 Nordeste 20 Este 0 -- -- 27
2019-03-27 17:00:00 20.8 12 Este 23 Este 0 -- -- 27
2019-03-27 16:00:00 20.7 9 Este 28 Este 0 -- -- 27
2019-03-27 15:00:00 19.8 13 Nordeste 30 Nordeste 0 -- -- 23
2019-03-27 14:00:00 18.9 15 Nordeste 31 Nordeste 0 -- -- 30
2019-03-27 13:00:00 18.2 19 Nordeste 36 Nordeste 0 -- -- 32
2019-03-27 12:00:00 16.9 24 Nordeste 35 Nordeste 0 -- -- 33
2019-03-27 11:00:00 15.1 22 Nordeste 36 Nordeste 0 -- -- 39
2019-03-27 10:00:00 13.1 21 Nordeste 36 Nordeste 0 -- -- 42
2019-03-27 09:00:00 11.2 19 Nordeste 35 Este 0 -- -- 52
2019-03-27 08:00:00 10.3 20 Nordeste 44 Nordeste 0 -- -- 53
2019-03-27 07:00:00 11 21 Nordeste 34 Nordeste 0 -- -- 50
2019-03-27 06:00:00 12 19 Nordeste 36 Este 0 -- -- 46
2019-03-27 05:00:00 13 23 Nordeste 39 Este 0 -- -- 44
2019-03-27 04:00:00 13.7 20 Este 40 Nordeste 0 -- -- 38
2019-03-27 03:00:00 14.5 20 Este 40 Nordeste 0 -- -- 33
2019-03-27 02:00:00 16.2 24 Nordeste 49 Este 0 -- -- 29
2019-03-27 01:00:00 16.9 31 Nordeste 50 Nordeste 0 -- -- 24
2019-03-27 00:00:00 15.9 14 Nordeste 26 Nordeste 0 -- -- 31